createdAt,value
2023-03-15T00:00:31.088Z,99236.94
2023-03-15T00:03:18.573Z,99252.03
2023-03-15T00:05:48.356Z,99237.34
2023-03-15T00:08:19.039Z,99248.00
2023-03-15T00:10:48.143Z,99241.72
2023-03-15T00:13:16.744Z,99242.31
2023-03-15T00:15:48.999Z,99253.94
2023-03-15T00:18:17.727Z,99260.31
2023-03-15T00:20:45.755Z,99276.03
2023-03-15T00:23:14.502Z,99283.50
2023-03-15T00:25:46.631Z,99291.66
2023-03-15T00:28:14.347Z,99297.91
2023-03-15T00:30:42.679Z,99310.28
2023-03-15T00:33:11.642Z,99311.31
2023-03-15T00:35:40.998Z,99319.16
2023-03-15T00:38:09.240Z,99320.13
2023-03-15T00:40:38.536Z,99327.97
2023-03-15T00:43:07.393Z,99336.47
2023-03-15T00:45:35.390Z,99346.78
2023-03-15T00:48:02.921Z,99349.56
2023-03-15T00:50:30.832Z,99359.34
2023-03-15T00:52:58.267Z,99351.25
2023-03-15T00:55:26.096Z,99361.44
2023-03-15T00:57:53.571Z,99350.72
2023-03-15T01:00:24.265Z,99364.31
2023-03-15T01:02:52.100Z,99364.06
2023-03-15T01:05:20.207Z,99360.75
2023-03-15T01:07:48.165Z,99369.25
2023-03-15T01:10:16.918Z,99360.19
2023-03-15T01:12:45.036Z,99371.38
2023-03-15T01:15:14.948Z,99366.44
2023-03-15T01:17:43.856Z,99380.44
2023-03-15T01:20:13.608Z,99389.63
2023-03-15T01:22:41.055Z,99393.41
2023-03-15T01:25:09.907Z,99394.25
2023-03-15T01:27:37.631Z,99398.97
2023-03-15T01:30:06.504Z,99385.00
2023-03-15T01:32:34.375Z,99382.34
2023-03-15T01:35:03.963Z,99382.81
2023-03-15T01:37:31.374Z,99383.78
2023-03-15T01:39:59.453Z,99392.59
2023-03-15T01:42:26.998Z,99395.13
2023-03-15T01:44:56.774Z,99392.63
2023-03-15T01:47:24.523Z,99396.25
2023-03-15T01:49:58.585Z,99413.31
2023-03-15T01:52:31.846Z,99402.72
2023-03-15T01:55:02.583Z,99411.50
2023-03-15T01:57:34.421Z,99420.31
2023-03-15T02:00:06.739Z,99427.72
2023-03-15T02:02:34.427Z,99429.56
2023-03-15T02:05:09.108Z,99441.28
2023-03-15T02:07:43.379Z,99443.38
2023-03-15T02:10:14.916Z,99438.50
2023-03-15T02:12:46.770Z,99434.03
2023-03-15T02:15:15.183Z,99437.09
2023-03-15T02:17:45.037Z,99440.31
2023-03-15T02:20:24.377Z,99438.22
2023-03-15T02:22:56.865Z,99448.97
2023-03-15T02:25:36.985Z,99458.31
2023-03-15T02:28:07.994Z,99457.78
2023-03-15T02:30:36.181Z,99457.47
2023-03-15T02:33:08.204Z,99457.75
2023-03-15T02:35:36.066Z,99450.94
2023-03-15T02:38:03.710Z,99461.25
2023-03-15T02:40:31.915Z,99468.53
2023-03-15T02:43:02.387Z,99460.72
2023-03-15T02:45:33.572Z,99469.91
2023-03-15T02:48:04.307Z,99474.53
2023-03-15T02:50:32.597Z,99475.75
2023-03-15T02:53:00.104Z,99478.41
2023-03-15T02:55:27.911Z,99478.97
2023-03-15T02:57:55.388Z,99489.06
2023-03-15T03:00:23.267Z,99493.66
2023-03-15T03:02:52.295Z,99500.91
2023-03-15T03:05:20.582Z,99495.50
2023-03-15T03:07:48.367Z,99500.38
2023-03-15T03:10:18.830Z,99490.03
2023-03-15T03:12:46.549Z,99504.97
2023-03-15T03:15:14.314Z,99511.25
2023-03-15T03:17:41.843Z,99509.13
2023-03-15T03:20:12.833Z,99515.44
2023-03-15T03:22:42.030Z,99517.28
2023-03-15T03:25:10.733Z,99520.34
2023-03-15T03:27:38.402Z,99534.84
2023-03-15T03:30:09.024Z,99537.09
2023-03-15T03:32:36.509Z,99533.75
2023-03-15T03:35:04.838Z,99547.97
2023-03-15T03:37:33.874Z,99556.75
2023-03-15T03:40:01.901Z,99555.72
2023-03-15T03:42:29.426Z,99566.56
2023-03-15T03:44:57.283Z,99582.06
2023-03-15T03:47:24.809Z,99578.63
2023-03-15T03:49:52.948Z,99580.13
2023-03-15T03:52:20.409Z,99578.72
2023-03-15T03:54:49.686Z,99589.91
2023-03-15T03:57:17.079Z,99587.81
2023-03-15T03:59:44.835Z,99591.72
2023-03-15T04:02:12.506Z,99598.38
2023-03-15T04:04:40.371Z,99598.00
2023-03-15T04:07:07.939Z,99588.50
2023-03-15T04:09:36.086Z,99589.19
2023-03-15T04:12:05.777Z,99598.53
2023-03-15T04:14:33.679Z,99601.28
2023-03-15T04:17:01.057Z,99612.16
2023-03-15T04:19:29.075Z,99610.06
2023-03-15T04:21:56.722Z,99606.69
2023-03-15T04:24:24.565Z,99614.63
2023-03-15T04:26:52.025Z,99623.50
2023-03-15T04:29:21.453Z,99624.75
2023-03-15T04:31:48.870Z,99636.75
2023-03-15T04:34:16.739Z,99637.13
2023-03-15T04:36:44.142Z,99630.41
2023-03-15T04:39:12.216Z,99630.41
2023-03-15T04:41:39.620Z,99635.78
2023-03-15T04:44:07.474Z,99638.69
2023-03-15T04:46:36.390Z,99640.63
2023-03-15T04:49:04.255Z,99639.28
2023-03-15T04:51:31.757Z,99647.53
2023-03-15T04:53:59.575Z,99646.75
2023-03-15T04:56:27.445Z,99635.72
2023-03-15T04:58:55.406Z,99644.00
2023-03-15T05:01:27.936Z,99646.47
2023-03-15T05:03:57.203Z,99654.09
2023-03-15T05:06:25.237Z,99652.88
2023-03-15T05:08:53.963Z,99656.09
2023-03-15T05:11:21.722Z,99653.69
2023-03-15T05:13:49.704Z,99648.28
2023-03-15T05:16:17.350Z,99659.84
2023-03-15T05:18:45.343Z,99667.09
2023-03-15T05:21:14.399Z,99663.19
2023-03-15T05:23:42.281Z,99663.00
2023-03-15T05:26:12.544Z,99672.88
2023-03-15T05:28:40.459Z,99677.81
2023-03-15T05:31:07.831Z,99688.88
2023-03-15T05:33:35.689Z,99690.50
2023-03-15T05:36:03.316Z,99691.38
2023-03-15T05:38:32.642Z,99692.84
2023-03-15T05:41:00.023Z,99696.19
2023-03-15T05:43:27.861Z,99697.47
2023-03-15T05:45:58.031Z,99704.31
2023-03-15T05:48:25.855Z,99699.59
2023-03-15T05:50:53.504Z,99707.38
2023-03-15T05:53:21.407Z,99719.03
2023-03-15T05:55:50.243Z,99719.47
2023-03-15T05:58:18.058Z,99718.75
2023-03-15T06:00:45.541Z,99726.25
2023-03-15T06:03:13.400Z,99734.13
2023-03-15T06:05:40.938Z,99733.44
2023-03-15T06:08:09.154Z,99749.88
2023-03-15T06:10:36.666Z,99750.31
2023-03-15T06:13:08.975Z,99748.31
2023-03-15T06:15:36.855Z,99751.31
2023-03-15T06:18:04.880Z,99756.78
2023-03-15T06:20:32.732Z,99762.47
2023-03-15T06:23:00.633Z,99766.75
2023-03-15T06:25:28.473Z,99766.38
2023-03-15T06:27:56.354Z,99771.06
2023-03-15T06:30:25.473Z,99783.34
2023-03-15T06:32:53.428Z,99788.59
2023-03-15T06:35:21.044Z,99793.97
2023-03-15T06:37:48.967Z,99805.16
2023-03-15T06:40:16.898Z,99810.38
2023-03-15T06:42:44.796Z,99819.66
2023-03-15T06:45:12.552Z,99825.31
2023-03-15T06:47:41.767Z,99826.88
2023-03-15T06:50:10.838Z,99838.38
2023-03-15T06:52:38.728Z,99838.09
2023-03-15T06:55:07.000Z,99845.19
2023-03-15T06:57:34.810Z,99845.34
2023-03-15T07:00:02.140Z,99848.47
2023-03-15T07:02:30.065Z,99850.13
2023-03-15T07:04:59.120Z,99847.34
2023-03-15T07:07:27.490Z,99859.97
2023-03-15T07:09:55.311Z,99850.19
2023-03-15T07:12:23.702Z,99851.69
2023-03-15T07:14:51.137Z,99851.44
2023-03-15T07:17:18.946Z,99858.16
2023-03-15T07:19:55.822Z,99862.25
2023-03-15T07:22:25.969Z,99854.78
2023-03-15T07:24:53.461Z,99873.44
2023-03-15T07:27:21.335Z,99880.31
2023-03-15T07:29:48.971Z,99873.13
2023-03-15T07:32:16.888Z,99881.53
2023-03-15T07:34:44.355Z,99885.72
2023-03-15T07:37:12.128Z,99889.19
2023-03-15T07:39:41.008Z,99887.75
2023-03-15T07:42:09.491Z,99892.25
2023-03-15T07:44:36.926Z,99891.56
2023-03-15T07:47:05.282Z,99894.38
2023-03-15T07:49:32.781Z,99895.94
2023-03-15T07:52:00.660Z,99899.59
2023-03-15T07:54:28.862Z,99902.25
2023-03-15T07:56:58.141Z,99912.22
2023-03-15T07:59:25.706Z,99908.88
2023-03-15T08:01:53.569Z,99906.97
2023-03-15T08:04:21.040Z,99908.53
2023-03-15T08:06:48.908Z,99911.06
2023-03-15T08:09:16.410Z,99928.84
2023-03-15T08:11:45.330Z,99929.56
2023-03-15T08:14:14.671Z,99924.75
2023-03-15T08:16:42.477Z,99925.81
2023-03-15T08:19:10.108Z,99929.78
2023-03-15T08:21:37.954Z,99927.63
2023-03-15T08:24:06.013Z,99928.78
2023-03-15T08:26:33.946Z,99922.81
2023-03-15T08:29:01.537Z,99927.59
2023-03-15T08:31:30.858Z,99917.38
2023-03-15T08:33:58.416Z,99925.25
2023-03-15T08:36:26.198Z,99926.09
2023-03-15T08:38:53.642Z,99920.81
2023-03-15T08:41:21.474Z,99921.59
2023-03-15T08:43:51.640Z,99929.00
2023-03-15T08:46:19.586Z,99923.13
2023-03-15T08:48:48.689Z,99926.94
2023-03-15T08:51:16.670Z,99919.97
2023-03-15T08:53:44.322Z,99931.50
2023-03-15T08:56:12.328Z,99933.13
2023-03-15T08:58:39.864Z,99934.16
2023-03-15T09:01:08.003Z,99937.56
2023-03-15T09:03:35.695Z,99945.69
2023-03-15T09:06:05.337Z,99951.63
2023-03-15T09:08:32.849Z,99948.56
2023-03-15T09:11:01.101Z,99956.53
2023-03-15T09:13:29.015Z,99944.09
2023-03-15T09:15:57.506Z,99953.66
2023-03-15T09:18:25.790Z,99952.53
2023-03-15T09:20:53.690Z,99951.63
2023-03-15T09:23:22.626Z,99954.31
2023-03-15T09:25:50.545Z,99945.00
2023-03-15T09:28:18.063Z,99957.63
2023-03-15T09:30:46.207Z,99961.69
2023-03-15T09:33:13.770Z,99957.53
2023-03-15T09:35:42.148Z,99957.44
2023-03-15T09:38:10.348Z,99962.34
2023-03-15T09:40:42.124Z,99968.72
2023-03-15T09:43:36.639Z,99970.38
2023-03-15T09:46:20.812Z,99981.81
2023-03-15T09:48:53.934Z,99965.25
2023-03-15T09:51:33.860Z,99971.72
2023-03-15T09:54:05.666Z,99982.16
2023-03-15T09:56:39.716Z,99972.47
2023-03-15T09:59:07.610Z,99963.97
2023-03-15T10:01:37.853Z,99964.84
2023-03-15T10:04:11.602Z,99965.00
2023-03-15T10:06:43.910Z,99963.81
2023-03-15T10:09:15.586Z,99969.84
2023-03-15T10:11:53.827Z,99969.03
2023-03-15T10:14:32.537Z,99968.16
2023-03-15T10:17:03.954Z,99968.84
2023-03-15T10:19:39.609Z,99969.00
2023-03-15T10:22:21.540Z,99978.41
2023-03-15T10:24:51.597Z,99962.13
2023-03-15T10:27:25.813Z,99975.88
2023-03-15T10:29:56.629Z,99985.09
2023-03-15T10:32:28.642Z,99975.56
2023-03-15T10:34:58.423Z,99985.44
2023-03-15T10:37:28.979Z,99976.88
2023-03-15T10:39:59.218Z,99978.41
2023-03-15T10:42:30.926Z,99982.94
2023-03-15T10:44:59.745Z,99989.28
2023-03-15T10:47:28.152Z,99991.88
2023-03-15T10:49:59.489Z,99993.44
2023-03-15T10:52:35.617Z,99987.94
2023-03-15T10:55:07.401Z,99990.28
2023-03-15T10:57:40.189Z,99997.94
2023-03-15T11:00:22.121Z,99995.97
2023-03-15T11:02:51.982Z,99995.31
2023-03-15T11:05:20.407Z,99991.63
2023-03-15T11:07:57.157Z,99995.84
2023-03-15T11:10:29.587Z,99994.81
2023-03-15T11:13:13.510Z,99990.47
2023-03-15T11:15:49.494Z,99990.22
2023-03-15T11:18:20.631Z,99998.88
2023-03-15T11:20:48.286Z,99985.63
2023-03-15T11:23:22.208Z,99980.72
2023-03-15T11:25:49.698Z,99980.91
2023-03-15T11:28:22.767Z,99990.56
2023-03-15T11:30:50.552Z,99992.34
2023-03-15T11:33:29.877Z,99979.72
2023-03-15T11:35:59.509Z,99992.53
2023-03-15T11:38:32.815Z,99994.63
2023-03-15T11:41:02.668Z,99992.19
2023-03-15T11:43:45.333Z,99987.59
2023-03-15T11:46:22.894Z,99989.78
2023-03-15T11:48:57.626Z,99978.66
2023-03-15T11:51:25.261Z,99976.63
2023-03-15T11:54:03.679Z,99977.94
2023-03-15T11:56:51.873Z,99981.28
2023-03-15T11:59:25.987Z,99979.66
2023-03-15T12:01:58.452Z,99978.09
2023-03-15T12:04:49.466Z,99985.19
2023-03-15T12:07:38.317Z,99983.53
2023-03-15T12:10:20.440Z,99980.19
2023-03-15T12:12:56.795Z,99982.53
2023-03-15T12:15:46.393Z,99975.34
2023-03-15T12:18:20.148Z,99986.09
2023-03-15T12:21:07.893Z,99984.94
2023-03-15T12:23:40.948Z,99984.28
2023-03-15T12:26:16.748Z,99992.16
2023-03-15T12:28:52.870Z,99987.97
2023-03-15T12:31:23.337Z,99990.13
2023-03-15T12:33:53.169Z,99987.63
2023-03-15T12:36:32.486Z,99988.28
2023-03-15T12:39:03.236Z,99987.94
2023-03-15T12:41:38.230Z,99984.47
2023-03-15T12:44:25.728Z,99986.47
2023-03-15T12:46:57.814Z,99988.28
2023-03-15T12:49:37.463Z,99991.28
2023-03-15T12:52:24.949Z,99998.81
2023-03-15T12:55:00.053Z,100001.31
2023-03-15T12:57:30.315Z,100008.81
2023-03-15T13:00:00.664Z,100003.16
2023-03-15T13:02:43.354Z,100011.78
2023-03-15T13:05:23.175Z,100011.56
2023-03-15T13:08:08.030Z,100006.34
2023-03-15T13:11:14.142Z,100011.22
2023-03-15T13:13:58.391Z,100014.31
2023-03-15T13:16:34.025Z,100022.75
2023-03-15T13:19:31.495Z,100026.63
2023-03-15T13:22:13.195Z,100037.34
2023-03-15T13:24:52.022Z,100026.06
2023-03-15T13:27:35.585Z,100034.44
2023-03-15T13:30:24.732Z,100036.75
2023-03-15T13:33:03.388Z,100037.03
2023-03-15T13:35:31.748Z,100037.59
2023-03-15T13:38:08.214Z,100035.59
2023-03-15T13:40:46.358Z,100032.41
2023-03-15T13:43:13.999Z,100039.03
2023-03-15T13:45:43.213Z,100042.75
2023-03-15T13:48:12.905Z,100042.06
2023-03-15T13:50:41.564Z,100046.19
2023-03-15T13:53:18.974Z,100045.47
2023-03-15T13:55:51.818Z,100047.59
2023-03-15T13:58:19.755Z,100047.53
2023-03-15T14:00:47.888Z,100050.56
2023-03-15T14:03:20.940Z,100051.34
2023-03-15T14:05:52.001Z,100054.38
2023-03-15T14:08:24.883Z,100056.81
2023-03-15T14:11:04.857Z,100055.56
2023-03-15T14:13:34.158Z,100054.47
2023-03-15T14:16:04.348Z,100056.19
2023-03-15T14:18:36.461Z,100058.78
2023-03-15T14:21:07.838Z,100061.28
2023-03-15T14:23:42.188Z,100063.41
2023-03-15T14:26:18.353Z,100063.59
2023-03-15T14:28:51.013Z,100063.97
2023-03-15T14:31:24.679Z,100059.72
2023-03-15T14:33:54.736Z,100057.66
2023-03-15T14:36:25.567Z,100059.22
2023-03-15T14:38:57.563Z,100058.25
2023-03-15T14:41:31.498Z,100064.47
2023-03-15T14:44:00.156Z,100057.91
2023-03-15T14:46:28.450Z,100059.13
2023-03-15T14:48:56.051Z,100058.97
2023-03-15T14:51:24.691Z,100066.47
2023-03-15T14:53:55.984Z,100066.41
2023-03-15T14:56:24.317Z,100065.69
2023-03-15T14:58:52.290Z,100070.22
2023-03-15T15:01:23.884Z,100075.50
2023-03-15T15:03:54.192Z,100075.34
2023-03-15T15:06:22.318Z,100082.91
2023-03-15T15:08:55.535Z,100083.13
2023-03-15T15:11:25.831Z,100085.06
2023-03-15T15:13:53.544Z,100086.16
2023-03-15T15:16:21.723Z,100086.22
2023-03-15T15:18:50.497Z,100082.88
2023-03-15T15:21:24.083Z,100084.03
2023-03-15T15:23:58.417Z,100080.25
2023-03-15T15:26:32.981Z,100088.75
2023-03-15T15:29:00.481Z,100088.66
2023-03-15T15:31:30.244Z,100089.91
2023-03-15T15:33:58.434Z,100104.44
2023-03-15T15:36:29.876Z,100112.16
2023-03-15T15:38:58.861Z,100107.94
2023-03-15T15:41:29.869Z,100112.94
2023-03-15T15:43:58.567Z,100128.94
2023-03-15T15:46:26.596Z,100118.03
2023-03-15T15:48:54.973Z,100122.84
2023-03-15T15:51:28.719Z,100119.50
2023-03-15T15:54:00.492Z,100119.19
2023-03-15T15:56:34.346Z,100130.13
2023-03-15T15:59:04.210Z,100131.97
2023-03-15T16:01:32.841Z,100143.88
2023-03-15T16:04:01.342Z,100147.03
2023-03-15T16:06:29.471Z,100145.22
2023-03-15T16:08:59.822Z,100147.28
2023-03-15T16:11:28.590Z,100149.38
2023-03-15T16:13:57.721Z,100143.22
2023-03-15T16:16:26.030Z,100141.00
2023-03-15T16:18:53.828Z,100146.44
2023-03-15T16:21:29.399Z,100153.06
2023-03-15T16:24:00.574Z,100154.09
2023-03-15T16:26:28.574Z,100164.00
2023-03-15T16:28:57.648Z,100158.97
2023-03-15T16:31:25.770Z,100153.16
2023-03-15T16:33:53.287Z,100142.81
2023-03-15T16:36:22.557Z,100159.38
2023-03-15T16:38:50.209Z,100160.97
2023-03-15T16:41:18.188Z,100170.91
2023-03-15T16:43:49.069Z,100168.53
2023-03-15T16:46:19.117Z,100170.91
2023-03-15T16:48:46.802Z,100171.78
2023-03-15T16:51:18.264Z,100189.13
2023-03-15T16:53:45.999Z,100188.44
2023-03-15T16:56:15.405Z,100187.16
2023-03-15T16:58:44.495Z,100189.13
2023-03-15T17:01:13.897Z,100192.19
2023-03-15T17:03:43.033Z,100197.22
2023-03-15T17:06:16.843Z,100204.53
2023-03-15T17:08:44.440Z,100200.75
2023-03-15T17:11:12.838Z,100204.63
2023-03-15T17:13:41.383Z,100214.47
2023-03-15T17:16:12.088Z,100205.47
2023-03-15T17:18:41.328Z,100208.75
2023-03-15T17:21:12.712Z,100212.34
2023-03-15T17:23:42.714Z,100213.94
2023-03-15T17:26:12.839Z,100217.41
2023-03-15T17:28:41.492Z,100223.81
2023-03-15T17:31:24.560Z,100228.34
2023-03-15T17:33:53.053Z,100228.75
2023-03-15T17:36:25.487Z,100221.47
2023-03-15T17:38:54.117Z,100230.78
2023-03-15T17:41:24.804Z,100231.03
2023-03-15T17:43:52.620Z,100234.22
2023-03-15T17:46:21.948Z,100236.56
2023-03-15T17:48:49.404Z,100240.75
2023-03-15T17:51:23.121Z,100254.97
2023-03-15T17:53:55.046Z,100247.91
2023-03-15T17:56:23.042Z,100256.53
2023-03-15T17:58:50.564Z,100254.72
2023-03-15T18:01:20.556Z,100258.47
2023-03-15T18:03:48.627Z,100257.84
2023-03-15T18:06:19.620Z,100255.53
2023-03-15T18:08:48.375Z,100257.66
2023-03-15T18:11:22.806Z,100257.09
2023-03-15T18:13:54.454Z,100259.53
2023-03-15T18:16:22.530Z,100264.53
2023-03-15T18:18:50.858Z,100271.72
2023-03-15T18:21:20.831Z,100270.69
2023-03-15T18:23:48.915Z,100267.88
2023-03-15T18:26:19.907Z,100274.78
2023-03-15T18:28:47.860Z,100282.03
2023-03-15T18:31:18.115Z,100282.22
2023-03-15T18:33:46.124Z,100283.47
2023-03-15T18:36:14.547Z,100283.66
2023-03-15T18:38:43.149Z,100281.97
2023-03-15T18:41:16.211Z,100289.69
2023-03-15T18:43:46.222Z,100286.56
2023-03-15T18:46:14.403Z,100280.88
2023-03-15T18:48:45.010Z,100295.66
2023-03-15T18:51:14.463Z,100294.13
2023-03-15T18:53:43.224Z,100302.53
2023-03-15T18:56:16.866Z,100304.84
2023-03-15T18:58:46.102Z,100308.25
2023-03-15T19:01:15.290Z,100312.34
2023-03-15T19:03:43.471Z,100312.22
2023-03-15T19:06:12.780Z,100319.94
2023-03-15T19:08:41.326Z,100328.66
2023-03-15T19:11:09.490Z,100333.72
2023-03-15T19:13:38.131Z,100328.66
2023-03-15T19:16:08.927Z,100339.63
2023-03-15T19:18:37.090Z,100335.56
2023-03-15T19:21:05.693Z,100341.00
2023-03-15T19:23:34.050Z,100348.47
2023-03-15T19:26:02.609Z,100345.56
2023-03-15T19:28:30.729Z,100343.72
2023-03-15T19:30:59.291Z,100347.09
2023-03-15T19:33:29.835Z,100344.91
2023-03-15T19:35:59.623Z,100348.84
2023-03-15T19:38:27.970Z,100350.97
2023-03-15T19:40:56.762Z,100345.59
2023-03-15T19:43:24.654Z,100352.72
2023-03-15T19:45:55.615Z,100352.75
2023-03-15T19:48:23.712Z,100363.97
2023-03-15T19:50:53.574Z,100361.38
2023-03-15T19:53:21.510Z,100363.34
2023-03-15T19:55:49.461Z,100366.81
2023-03-15T19:58:17.191Z,100376.22
2023-03-15T20:00:47.676Z,100373.44
2023-03-15T20:03:15.518Z,100375.94
2023-03-15T20:05:46.337Z,100379.06
2023-03-15T20:08:15.579Z,100380.94
2023-03-15T20:10:44.242Z,100386.97
2023-03-15T20:13:12.051Z,100382.00
2023-03-15T20:15:40.726Z,100386.00
2023-03-15T20:18:08.338Z,100385.50
2023-03-15T20:20:38.476Z,100391.81
2023-03-15T20:23:05.960Z,100396.94
2023-03-15T20:25:35.762Z,100397.47
2023-03-15T20:28:03.465Z,100399.91
2023-03-15T20:30:31.431Z,100405.56
2023-03-15T20:32:59.016Z,100398.31
2023-03-15T20:35:26.884Z,100399.94
2023-03-15T20:38:02.290Z,100408.03
2023-03-15T20:40:30.283Z,100410.25
2023-03-15T20:42:59.479Z,100414.91
2023-03-15T20:45:27.416Z,100417.69
2023-03-15T20:47:55.113Z,100420.03
2023-03-15T20:50:24.030Z,100419.97
2023-03-15T20:52:52.222Z,100420.34
2023-03-15T20:55:20.262Z,100426.31
2023-03-15T20:57:48.048Z,100424.28
2023-03-15T21:00:18.753Z,100424.69
2023-03-15T21:02:46.987Z,100431.88
2023-03-15T21:05:16.160Z,100439.84
2023-03-15T21:07:44.674Z,100442.72
2023-03-15T21:10:13.764Z,100441.72
2023-03-15T21:12:41.767Z,100449.59
2023-03-15T21:15:11.121Z,100447.06
2023-03-15T21:17:40.109Z,100451.94
2023-03-15T21:20:09.494Z,100452.63
2023-03-15T21:22:37.167Z,100449.88
2023-03-15T21:25:05.854Z,100460.75
2023-03-15T21:27:33.445Z,100467.03
2023-03-15T21:30:01.441Z,100462.66
2023-03-15T21:32:30.877Z,100466.28
2023-03-15T21:35:00.533Z,100470.00
2023-03-15T21:37:28.090Z,100471.59
2023-03-15T21:39:56.993Z,100472.47
2023-03-15T21:42:24.609Z,100476.78
2023-03-15T21:44:52.549Z,100482.72
2023-03-15T21:47:20.102Z,100480.09
2023-03-15T21:49:50.390Z,100483.69
2023-03-15T21:52:19.280Z,100482.44
2023-03-15T21:54:47.375Z,100484.47
2023-03-15T21:57:15.242Z,100478.94
2023-03-15T21:59:43.148Z,100482.53
2023-03-15T22:02:11.494Z,100483.16
2023-03-15T22:04:39.634Z,100486.66
2023-03-15T22:07:07.227Z,100488.25
2023-03-15T22:09:36.567Z,100489.94
2023-03-15T22:12:04.650Z,100487.50
2023-03-15T22:14:32.611Z,100499.28
2023-03-15T22:17:00.237Z,100497.59
2023-03-15T22:19:28.498Z,100504.16
2023-03-15T22:21:56.101Z,100499.19
2023-03-15T22:24:23.885Z,100499.47
2023-03-15T22:26:52.978Z,100514.72
2023-03-15T22:29:20.791Z,100504.56
2023-03-15T22:31:48.349Z,100513.78
2023-03-15T22:34:16.521Z,100512.09
2023-03-15T22:36:44.097Z,100514.72
2023-03-15T22:39:12.550Z,100514.38
2023-03-15T22:41:40.062Z,100512.69
2023-03-15T22:44:09.652Z,100513.66
2023-03-15T22:46:37.270Z,100508.56
2023-03-15T22:49:05.092Z,100516.41
2023-03-15T22:51:32.572Z,100516.41
2023-03-15T22:54:00.448Z,100512.59
2023-03-15T22:56:28.044Z,100506.16
2023-03-15T22:58:56.324Z,100503.28
2023-03-15T23:01:25.159Z,100510.38
2023-03-15T23:03:53.358Z,100512.50
2023-03-15T23:06:20.795Z,100517.56
2023-03-15T23:08:48.832Z,100519.28
2023-03-15T23:11:17.622Z,100518.78
2023-03-15T23:13:45.502Z,100522.16
2023-03-15T23:16:12.942Z,100525.56
2023-03-15T23:18:43.954Z,100526.72
2023-03-15T23:21:13.188Z,100527.88
2023-03-15T23:23:41.237Z,100534.53
2023-03-15T23:26:08.936Z,100532.28
2023-03-15T23:28:36.894Z,100534.28
2023-03-15T23:31:06.659Z,100542.00
2023-03-15T23:37:16.757Z,100544.31
2023-03-15T23:39:44.796Z,100546.56
2023-03-15T23:49:45.211Z,100548.16
2023-03-15T23:52:13.303Z,100559.91
2023-03-15T23:54:42.238Z,100566.91
2023-03-15T23:57:12.586Z,100557.78
2023-03-15T23:59:41.137Z,100562.97
